sensor_id;sensor_type;location;lat;lon;timestamp;pressure;altitude;pressure_sealevel;temperature;humidity
27643;BME280;15053;48.618;10.024;2023-09-07T00:00:39;94656.97;;;18.98;65.74
27643;BME280;15053;48.618;10.024;2023-09-07T00:03:05;94668.63;;;18.97;66.37
27643;BME280;15053;48.618;10.024;2023-09-07T00:05:32;94663.56;;;18.92;66.10
27643;BME280;15053;48.618;10.024;2023-09-07T00:07:58;94669.63;;;18.92;66.32
27643;BME280;15053;48.618;10.024;2023-09-07T00:10:25;94662.66;;;18.88;66.50
27643;BME280;15053;48.618;10.024;2023-09-07T00:12:52;94666.09;;;18.88;66.53
27643;BME280;15053;48.618;10.024;2023-09-07T00:15:19;94662.22;;;18.85;66.76
27643;BME280;15053;48.618;10.024;2023-09-07T00:17:46;94663.66;;;18.83;66.85
27643;BME280;15053;48.618;10.024;2023-09-07T00:20:13;94662.88;;;18.82;66.82
27643;BME280;15053;48.618;10.024;2023-09-07T00:22:42;94660.91;;;18.79;66.96
27643;BME280;15053;48.618;10.024;2023-09-07T00:25:09;94664.97;;;18.77;67.07
27643;BME280;15053;48.618;10.024;2023-09-07T00:30:46;94662.31;;;18.77;67.04
27643;BME280;15053;48.618;10.024;2023-09-07T00:33:13;94662.97;;;18.74;66.92
27643;BME280;15053;48.618;10.024;2023-09-07T00:35:39;94663.31;;;18.72;67.09
27643;BME280;15053;48.618;10.024;2023-09-07T00:38:06;94659.78;;;18.68;67.37
27643;BME280;15053;48.618;10.024;2023-09-07T00:40:32;94664.19;;;18.64;67.33
27643;BME280;15053;48.618;10.024;2023-09-07T00:42:59;94673.84;;;18.60;67.59
27643;BME280;15053;48.618;10.024;2023-09-07T00:45:26;94666.56;;;18.57;67.54
27643;BME280;15053;48.618;10.024;2023-09-07T00:47:53;94664.56;;;18.54;68.13
27643;BME280;15053;48.618;10.024;2023-09-07T00:50:20;94669.84;;;18.54;67.85
27643;BME280;15053;48.618;10.024;2023-09-07T00:52:47;94665.25;;;18.51;68.10
27643;BME280;15053;48.618;10.024;2023-09-07T00:55:15;94664.00;;;18.49;68.06
27643;BME280;15053;48.618;10.024;2023-09-07T00:57:41;94663.53;;;18.47;68.30
27643;BME280;15053;48.618;10.024;2023-09-07T01:00:09;94660.47;;;18.45;68.28
27643;BME280;15053;48.618;10.024;2023-09-07T01:02:36;94668.69;;;18.43;68.67
27643;BME280;15053;48.618;10.024;2023-09-07T01:05:04;94665.19;;;18.39;68.78
27643;BME280;15053;48.618;10.024;2023-09-07T01:07:56;94663.06;;;18.33;68.98
27643;BME280;15053;48.618;10.024;2023-09-07T01:10:24;94661.75;;;18.26;69.24
27643;BME280;15053;48.618;10.024;2023-09-07T01:12:51;94663.47;;;18.22;69.35
27643;BME280;15053;48.618;10.024;2023-09-07T01:15:17;94656.84;;;18.16;69.56
27643;BME280;15053;48.618;10.024;2023-09-07T01:17:44;94657.19;;;18.15;69.94
27643;BME280;15053;48.618;10.024;2023-09-07T01:20:12;94652.22;;;18.13;70.36
27643;BME280;15053;48.618;10.024;2023-09-07T01:22:40;94651.00;;;18.11;70.77
27643;BME280;15053;48.618;10.024;2023-09-07T01:25:07;94650.69;;;18.12;71.13
27643;BME280;15053;48.618;10.024;2023-09-07T01:27:35;94653.19;;;18.09;71.17
27643;BME280;15053;48.618;10.024;2023-09-07T01:30:02;94645.94;;;18.06;71.49
27643;BME280;15053;48.618;10.024;2023-09-07T01:32:30;94647.94;;;18.09;71.59
27643;BME280;15053;48.618;10.024;2023-09-07T01:34:57;94645.63;;;18.07;71.91
27643;BME280;15053;48.618;10.024;2023-09-07T01:37:24;94651.22;;;18.06;72.20
27643;BME280;15053;48.618;10.024;2023-09-07T01:39:51;94648.44;;;18.02;72.30
27643;BME280;15053;48.618;10.024;2023-09-07T01:42:18;94652.97;;;18.02;72.34
27643;BME280;15053;48.618;10.024;2023-09-07T01:44:44;94644.59;;;18.00;72.31
27643;BME280;15053;48.618;10.024;2023-09-07T01:47:11;94643.81;;;17.99;72.55
27643;BME280;15053;48.618;10.024;2023-09-07T01:49:38;94647.56;;;17.98;72.54
27643;BME280;15053;48.618;10.024;2023-09-07T01:52:05;94636.09;;;17.94;72.82
27643;BME280;15053;48.618;10.024;2023-09-07T01:54:31;94651.41;;;18.01;72.96
27643;BME280;15053;48.618;10.024;2023-09-07T01:56:58;94647.22;;;18.00;73.20
27643;BME280;15053;48.618;10.024;2023-09-07T01:59:25;94647.13;;;17.96;73.31
27643;BME280;15053;48.618;10.024;2023-09-07T02:01:52;94647.44;;;17.95;73.45
27643;BME280;15053;48.618;10.024;2023-09-07T02:04:19;94639.38;;;17.91;73.48
27643;BME280;15053;48.618;10.024;2023-09-07T02:06:45;94642.16;;;17.95;73.47
27643;BME280;15053;48.618;10.024;2023-09-07T02:09:12;94645.22;;;17.97;73.44
27643;BME280;15053;48.618;10.024;2023-09-07T02:11:38;94652.06;;;17.98;73.32
27643;BME280;15053;48.618;10.024;2023-09-07T02:14:06;94650.50;;;17.97;73.34
27643;BME280;15053;48.618;10.024;2023-09-07T02:16:33;94651.16;;;17.94;73.48
27643;BME280;15053;48.618;10.024;2023-09-07T02:19:04;94640.34;;;17.87;73.67
27643;BME280;15053;48.618;10.024;2023-09-07T02:21:31;94647.50;;;17.86;73.94
27643;BME280;15053;48.618;10.024;2023-09-07T02:23:58;94649.34;;;17.86;73.93
27643;BME280;15053;48.618;10.024;2023-09-07T02:26:24;94653.09;;;17.85;74.06
27643;BME280;15053;48.618;10.024;2023-09-07T02:28:51;94647.34;;;17.83;74.07
27643;BME280;15053;48.618;10.024;2023-09-07T02:31:19;94648.13;;;17.83;73.86
27643;BME280;15053;48.618;10.024;2023-09-07T02:33:46;94652.97;;;17.81;74.32
27643;BME280;15053;48.618;10.024;2023-09-07T02:36:12;94652.19;;;17.81;74.45
27643;BME280;15053;48.618;10.024;2023-09-07T02:38:39;94650.81;;;17.75;74.63
27643;BME280;15053;48.618;10.024;2023-09-07T02:41:06;94658.09;;;17.78;74.60
27643;BME280;15053;48.618;10.024;2023-09-07T02:43:32;94656.22;;;17.78;74.68
27643;BME280;15053;48.618;10.024;2023-09-07T02:45:59;94653.47;;;17.75;74.90
27643;BME280;15053;48.618;10.024;2023-09-07T02:48:26;94649.75;;;17.76;74.66
27643;BME280;15053;48.618;10.024;2023-09-07T02:50:53;94650.38;;;17.73;74.94
27643;BME280;15053;48.618;10.024;2023-09-07T02:53:22;94648.38;;;17.69;75.09
27643;BME280;15053;48.618;10.024;2023-09-07T02:55:48;94641.91;;;17.67;74.86
27643;BME280;15053;48.618;10.024;2023-09-07T02:58:16;94647.50;;;17.65;75.06
27643;BME280;15053;48.618;10.024;2023-09-07T03:00:44;94640.25;;;17.62;74.94
27643;BME280;15053;48.618;10.024;2023-09-07T03:03:12;94643.81;;;17.58;75.11
27643;BME280;15053;48.618;10.024;2023-09-07T03:05:40;94651.13;;;17.52;75.41
27643;BME280;15053;48.618;10.024;2023-09-07T03:08:07;94644.31;;;17.51;75.54
27643;BME280;15053;48.618;10.024;2023-09-07T03:10:38;94637.97;;;17.52;75.81
27643;BME280;15053;48.618;10.024;2023-09-07T03:13:07;94644.78;;;17.53;75.68
27643;BME280;15053;48.618;10.024;2023-09-07T03:15:34;94648.50;;;17.52;75.77
27643;BME280;15053;48.618;10.024;2023-09-07T03:18:01;94641.22;;;17.49;75.97
27643;BME280;15053;48.618;10.024;2023-09-07T03:20:28;94641.09;;;17.46;76.06
27643;BME280;15053;48.618;10.024;2023-09-07T03:22:55;94637.25;;;17.43;76.14
27643;BME280;15053;48.618;10.024;2023-09-07T03:25:22;94640.94;;;17.42;76.16
27643;BME280;15053;48.618;10.024;2023-09-07T03:27:49;94644.22;;;17.39;76.38
27643;BME280;15053;48.618;10.024;2023-09-07T03:30:16;94638.06;;;17.35;76.30
27643;BME280;15053;48.618;10.024;2023-09-07T03:32:43;94635.63;;;17.30;76.50
27643;BME280;15053;48.618;10.024;2023-09-07T03:35:10;94643.53;;;17.30;76.54
27643;BME280;15053;48.618;10.024;2023-09-07T03:37:37;94642.75;;;17.30;76.72
27643;BME280;15053;48.618;10.024;2023-09-07T03:40:05;94642.31;;;17.28;76.70
27643;BME280;15053;48.618;10.024;2023-09-07T03:42:33;94643.53;;;17.30;76.81
27643;BME280;15053;48.618;10.024;2023-09-07T03:45:00;94639.53;;;17.24;76.91
27643;BME280;15053;48.618;10.024;2023-09-07T03:47:27;94639.53;;;17.24;77.02
27643;BME280;15053;48.618;10.024;2023-09-07T03:49:57;94638.59;;;17.20;77.29
27643;BME280;15053;48.618;10.024;2023-09-07T03:52:24;94634.31;;;17.16;77.08
27643;BME280;15053;48.618;10.024;2023-09-07T03:54:56;94637.41;;;17.09;77.22
27643;BME280;15053;48.618;10.024;2023-09-07T03:57:25;94643.66;;;17.04;77.48
27643;BME280;15053;48.618;10.024;2023-09-07T03:59:52;94638.25;;;17.01;77.50
27643;BME280;15053;48.618;10.024;2023-09-07T04:02:19;94640.75;;;16.97;77.89
27643;BME280;15053;48.618;10.024;2023-09-07T04:04:50;94636.13;;;16.94;77.79
27643;BME280;15053;48.618;10.024;2023-09-07T04:07:17;94637.06;;;16.90;78.16
27643;BME280;15053;48.618;10.024;2023-09-07T04:09:45;94629.78;;;16.87;78.28
27643;BME280;15053;48.618;10.024;2023-09-07T04:12:12;94631.19;;;16.84;78.45
27643;BME280;15053;48.618;10.024;2023-09-07T04:14:38;94630.16;;;16.77;78.24
27643;BME280;15053;48.618;10.024;2023-09-07T04:17:06;94630.91;;;16.77;78.61
27643;BME280;15053;48.618;10.024;2023-09-07T04:19:32;94625.50;;;16.74;78.76
27643;BME280;15053;48.618;10.024;2023-09-07T04:22:00;94630.94;;;16.69;78.91
27643;BME280;15053;48.618;10.024;2023-09-07T04:24:27;94641.03;;;16.67;79.09
27643;BME280;15053;48.618;10.024;2023-09-07T04:26:58;94632.66;;;16.65;79.30
27643;BME280;15053;48.618;10.024;2023-09-07T04:29:26;94635.59;;;16.63;79.15
27643;BME280;15053;48.618;10.024;2023-09-07T04:31:53;94639.66;;;16.61;79.28
27643;BME280;15053;48.618;10.024;2023-09-07T04:34:23;94635.47;;;16.60;79.44
27643;BME280;15053;48.618;10.024;2023-09-07T04:36:51;94650.78;;;16.58;79.58
27643;BME280;15053;48.618;10.024;2023-09-07T04:39:17;94643.34;;;16.51;79.62
27643;BME280;15053;48.618;10.024;2023-09-07T04:41:44;94643.22;;;16.47;79.75
27643;BME280;15053;48.618;10.024;2023-09-07T04:44:11;94643.22;;;16.47;79.86
27643;BME280;15053;48.618;10.024;2023-09-07T04:46:38;94639.03;;;16.46;79.88
27643;BME280;15053;48.618;10.024;2023-09-07T04:49:05;94643.84;;;16.44;80.12
27643;BME280;15053;48.618;10.024;2023-09-07T04:51:31;94640.28;;;16.40;80.15
27643;BME280;15053;48.618;10.024;2023-09-07T04:53:58;94637.97;;;16.39;80.15
27643;BME280;15053;48.618;10.024;2023-09-07T04:56:25;94634.75;;;16.33;80.22
27643;BME280;15053;48.618;10.024;2023-09-07T04:58:52;94632.13;;;16.25;80.46
27643;BME280;15053;48.618;10.024;2023-09-07T05:01:19;94645.72;;;16.27;80.52
27643;BME280;15053;48.618;10.024;2023-09-07T05:03:46;94640.78;;;16.25;80.75
27643;BME280;15053;48.618;10.024;2023-09-07T05:06:13;94619.94;;;16.12;80.68
27643;BME280;15053;48.618;10.024;2023-09-07T05:08:40;94637.22;;;16.21;80.75
27643;BME280;15053;48.618;10.024;2023-09-07T05:11:07;94644.66;;;16.19;81.00
27643;BME280;15053;48.618;10.024;2023-09-07T05:13:33;94644.66;;;16.19;80.84
27643;BME280;15053;48.618;10.024;2023-09-07T05:16:01;94638.00;;;16.13;81.05
27643;BME280;15053;48.618;10.024;2023-09-07T05:18:28;94645.72;;;16.18;81.06
27643;BME280;15053;48.618;10.024;2023-09-07T05:20:56;94651.47;;;16.20;81.11
27643;BME280;15053;48.618;10.024;2023-09-07T05:23:23;94648.50;;;16.22;81.16
27643;BME280;15053;48.618;10.024;2023-09-07T05:25:53;94641.84;;;16.24;81.29
27643;BME280;15053;48.618;10.024;2023-09-07T05:28:23;94655.94;;;16.28;81.09
27643;BME280;15053;48.618;10.024;2023-09-07T05:30:52;94649.28;;;16.31;80.93
27643;BME280;15053;48.618;10.024;2023-09-07T05:33:21;94657.63;;;16.33;80.96
27643;BME280;15053;48.618;10.024;2023-09-07T05:35:47;94663.66;;;16.33;81.12
27643;BME280;15053;48.618;10.024;2023-09-07T05:38:14;94663.03;;;16.36;81.10
27643;BME280;15053;48.618;10.024;2023-09-07T05:40:44;94663.63;;;16.42;81.04
27643;BME280;15053;48.618;10.024;2023-09-07T05:43:11;94657.88;;;16.48;80.75
27643;BME280;15053;48.618;10.024;2023-09-07T05:45:40;94659.91;;;16.51;80.61
27643;BME280;15053;48.618;10.024;2023-09-07T05:48:08;94662.88;;;16.59;80.36
27643;BME280;15053;48.618;10.024;2023-09-07T05:50:37;94663.13;;;16.66;80.16
27643;BME280;15053;48.618;10.024;2023-09-07T05:53:05;94663.75;;;16.71;80.08
27643;BME280;15053;48.618;10.024;2023-09-07T05:55:32;94663.25;;;16.78;79.85
27643;BME280;15053;48.618;10.024;2023-09-07T05:58:04;94666.78;;;16.82;79.56
27643;BME280;15053;48.618;10.024;2023-09-07T06:00:35;94668.19;;;16.88;79.21
27643;BME280;15053;48.618;10.024;2023-09-07T06:03:04;94670.63;;;16.93;79.22
27643;BME280;15053;48.618;10.024;2023-09-07T06:05:30;94667.19;;;17.01;78.69
27643;BME280;15053;48.618;10.024;2023-09-07T06:07:57;94655.84;;;17.09;78.43
27643;BME280;15053;48.618;10.024;2023-09-07T06:10:24;94665.56;;;17.17;78.20
27643;BME280;15053;48.618;10.024;2023-09-07T06:12:50;94665.06;;;17.24;77.92
27643;BME280;15053;48.618;10.024;2023-09-07T06:15:17;94653.13;;;17.26;77.90
27643;BME280;15053;48.618;10.024;2023-09-07T06:17:44;94664.22;;;17.40;77.51
27643;BME280;15053;48.618;10.024;2023-09-07T06:20:12;94664.59;;;17.51;77.46
27643;BME280;15053;48.618;10.024;2023-09-07T06:22:40;94667.84;;;17.56;77.07
27643;BME280;15053;48.618;10.024;2023-09-07T06:25:06;94667.03;;;17.64;76.95
27643;BME280;15053;48.618;10.024;2023-09-07T06:27:33;94663.56;;;17.73;76.76
27643;BME280;15053;48.618;10.024;2023-09-07T06:30:00;94670.63;;;17.81;76.30
27643;BME280;15053;48.618;10.024;2023-09-07T06:32:26;94668.25;;;17.88;76.21
27643;BME280;15053;48.618;10.024;2023-09-07T06:34:53;94666.84;;;17.90;75.60
27643;BME280;15053;48.618;10.024;2023-09-07T06:37:20;94674.69;;;17.99;75.43
27643;BME280;15053;48.618;10.024;2023-09-07T06:39:47;94667.38;;;18.04;75.09
27643;BME280;15053;48.618;10.024;2023-09-07T06:42:13;94669.16;;;18.12;74.76
27643;BME280;15053;48.618;10.024;2023-09-07T06:44:48;94675.44;;;18.20;73.92
27643;BME280;15053;48.618;10.024;2023-09-07T06:47:15;94671.03;;;18.24;74.03
27643;BME280;15053;48.618;10.024;2023-09-07T06:49:42;94680.50;;;18.25;73.46
27643;BME280;15053;48.618;10.024;2023-09-07T06:52:08;94679.53;;;18.29;73.38
27643;BME280;15053;48.618;10.024;2023-09-07T06:54:37;94680.44;;;18.34;73.55
27643;BME280;15053;48.618;10.024;2023-09-07T06:57:08;94684.09;;;18.41;73.45
27643;BME280;15053;48.618;10.024;2023-09-07T06:59:35;94690.69;;;18.47;73.07
27643;BME280;15053;48.618;10.024;2023-09-07T07:02:03;94679.19;;;18.52;72.42
27643;BME280;15053;48.618;10.024;2023-09-07T07:04:32;94687.69;;;18.57;72.60
27643;BME280;15053;48.618;10.024;2023-09-07T07:06:59;94682.19;;;18.62;72.17
27643;BME280;15053;48.618;10.024;2023-09-07T07:09:28;94686.38;;;18.63;71.72
27643;BME280;15053;48.618;10.024;2023-09-07T07:11:57;94694.09;;;18.68;71.88
27643;BME280;15053;48.618;10.024;2023-09-07T07:14:24;94693.22;;;18.76;71.78
27643;BME280;15053;48.618;10.024;2023-09-07T07:16:50;94697.19;;;18.82;71.50
27643;BME280;15053;48.618;10.024;2023-09-07T07:19:18;94695.00;;;18.84;71.32
27643;BME280;15053;48.618;10.024;2023-09-07T07:22:01;94686.13;;;18.89;70.65
27643;BME280;15053;48.618;10.024;2023-09-07T07:24:30;94695.69;;;18.94;70.56
27643;BME280;15053;48.618;10.024;2023-09-07T07:26:56;94694.69;;;18.98;70.09
27643;BME280;15053;48.618;10.024;2023-09-07T07:29:23;94696.34;;;19.03;69.97
27643;BME280;15053;48.618;10.024;2023-09-07T07:31:50;94688.22;;;19.08;69.70
27643;BME280;15053;48.618;10.024;2023-09-07T07:34:17;94690.63;;;19.13;69.72
27643;BME280;15053;48.618;10.024;2023-09-07T07:36:43;94690.88;;;19.20;69.53
27643;BME280;15053;48.618;10.024;2023-09-07T07:39:11;94685.03;;;19.26;69.29
27643;BME280;15053;48.618;10.024;2023-09-07T07:41:39;94702.31;;;19.36;68.96
27643;BME280;15053;48.618;10.024;2023-09-07T07:44:09;94690.78;;;19.40;68.87
27643;BME280;15053;48.618;10.024;2023-09-07T07:46:35;94693.63;;;19.48;68.79
27643;BME280;15053;48.618;10.024;2023-09-07T07:49:02;94697.28;;;19.55;68.56
27643;BME280;15053;48.618;10.024;2023-09-07T07:51:29;94697.06;;;19.60;68.33
27643;BME280;15053;48.618;10.024;2023-09-07T07:53:56;94699.91;;;19.67;68.66
27643;BME280;15053;48.618;10.024;2023-09-07T07:56:23;94694.25;;;19.81;68.19
27643;BME280;15053;48.618;10.024;2023-09-07T07:58:52;94695.34;;;19.92;67.98
27643;BME280;15053;48.618;10.024;2023-09-07T08:01:19;94696.34;;;19.99;67.54
27643;BME280;15053;48.618;10.024;2023-09-07T08:03:52;94701.16;;;20.10;67.33
27643;BME280;15053;48.618;10.024;2023-09-07T08:06:20;94698.44;;;20.22;67.49
27643;BME280;15053;48.618;10.024;2023-09-07T08:08:47;94697.34;;;20.35;67.46
27643;BME280;15053;48.618;10.024;2023-09-07T08:11:14;94702.94;;;20.45;66.87
27643;BME280;15053;48.618;10.024;2023-09-07T08:13:41;94701.66;;;20.55;66.58
27643;BME280;15053;48.618;10.024;2023-09-07T08:16:08;94698.09;;;20.63;66.25
27643;BME280;15053;48.618;10.024;2023-09-07T08:18:39;94696.84;;;20.73;65.98
27643;BME280;15053;48.618;10.024;2023-09-07T08:21:07;94695.03;;;20.77;65.38
27643;BME280;15053;48.618;10.024;2023-09-07T08:23:33;94696.44;;;20.86;65.62
27643;BME280;15053;48.618;10.024;2023-09-07T08:26:00;94692.34;;;21.04;65.77
27643;BME280;15053;48.618;10.024;2023-09-07T08:28:27;94690.75;;;21.15;64.89
27643;BME280;15053;48.618;10.024;2023-09-07T08:30:56;94692.81;;;21.22;64.72
27643;BME280;15053;48.618;10.024;2023-09-07T08:33:25;94687.34;;;21.31;64.93
27643;BME280;15053;48.618;10.024;2023-09-07T08:35:56;94688.34;;;21.42;64.29
27643;BME280;15053;48.618;10.024;2023-09-07T08:38:23;94687.72;;;21.48;63.83
27643;BME280;15053;48.618;10.024;2023-09-07T08:40:54;94681.81;;;21.55;63.40
27643;BME280;15053;48.618;10.024;2023-09-07T08:43:22;94685.47;;;21.66;63.09
27643;BME280;15053;48.618;10.024;2023-09-07T08:46:02;94687.16;;;21.74;63.23
27643;BME280;15053;48.618;10.024;2023-09-07T08:48:31;94672.00;;;21.90;63.25
27643;BME280;15053;48.618;10.024;2023-09-07T08:50:59;94680.25;;;22.04;62.52
27643;BME280;15053;48.618;10.024;2023-09-07T08:53:25;94675.09;;;22.11;62.03
27643;BME280;15053;48.618;10.024;2023-09-07T08:55:53;94681.31;;;22.19;61.86
27643;BME280;15053;48.618;10.024;2023-09-07T08:58:19;94687.13;;;22.24;61.51
27643;BME280;15053;48.618;10.024;2023-09-07T09:00:46;94673.50;;;22.26;61.47
27643;BME280;15053;48.618;10.024;2023-09-07T09:03:13;94687.41;;;22.39;61.50
27643;BME280;15053;48.618;10.024;2023-09-07T09:05:40;94692.44;;;22.44;61.40
27643;BME280;15053;48.618;10.024;2023-09-07T09:08:10;94688.34;;;22.50;61.51
27643;BME280;15053;48.618;10.024;2023-09-07T09:10:38;94683.59;;;22.59;61.25
27643;BME280;15053;48.618;10.024;2023-09-07T09:13:06;94683.34;;;22.64;61.05
27643;BME280;15053;48.618;10.024;2023-09-07T09:15:32;94686.13;;;22.71;61.05
27643;BME280;15053;48.618;10.024;2023-09-07T09:18:11;94687.50;;;22.84;61.17
27643;BME280;15053;48.618;10.024;2023-09-07T09:20:39;94685.88;;;22.99;61.17
27643;BME280;15053;48.618;10.024;2023-09-07T09:23:06;94682.97;;;23.07;60.27
27643;BME280;15053;48.618;10.024;2023-09-07T09:25:33;94683.44;;;23.13;60.58
27643;BME280;15053;48.618;10.024;2023-09-07T09:28:00;94689.66;;;23.20;60.09
27643;BME280;15053;48.618;10.024;2023-09-07T09:30:27;94687.84;;;23.28;60.07
27643;BME280;15053;48.618;10.024;2023-09-07T09:32:53;94675.91;;;23.37;59.91
27643;BME280;15053;48.618;10.024;2023-09-07T09:35:20;94675.28;;;23.47;59.96
27643;BME280;15053;48.618;10.024;2023-09-07T09:37:47;94677.31;;;23.58;59.41
27643;BME280;15053;48.618;10.024;2023-09-07T09:40:15;94674.00;;;23.64;59.29
27643;BME280;15053;48.618;10.024;2023-09-07T09:42:43;94671.91;;;23.77;59.41
27643;BME280;15053;48.618;10.024;2023-09-07T09:45:11;94674.69;;;23.87;59.14
27643;BME280;15053;48.618;10.024;2023-09-07T09:47:41;94670.72;;;24.00;58.99
27643;BME280;15053;48.618;10.024;2023-09-07T09:50:10;94672.34;;;24.08;58.66
27643;BME280;15053;48.618;10.024;2023-09-07T09:52:38;94666.72;;;24.14;58.47
27643;BME280;15053;48.618;10.024;2023-09-07T09:55:08;94665.66;;;24.22;58.66
27643;BME280;15053;48.618;10.024;2023-09-07T09:57:35;94668.06;;;24.30;58.09
27643;BME280;15053;48.618;10.024;2023-09-07T10:00:04;94661.28;;;24.36;58.12
27643;BME280;15053;48.618;10.024;2023-09-07T10:03:08;94656.84;;;24.47;57.45
27643;BME280;15053;48.618;10.024;2023-09-07T10:05:39;94653.88;;;24.56;57.56
27643;BME280;15053;48.618;10.024;2023-09-07T10:08:12;94660.84;;;24.67;56.68
27643;BME280;15053;48.618;10.024;2023-09-07T10:10:41;94654.88;;;24.78;56.43
27643;BME280;15053;48.618;10.024;2023-09-07T10:13:08;94651.91;;;24.86;56.08
27643;BME280;15053;48.618;10.024;2023-09-07T10:15:35;94662.34;;;25.02;56.12
27643;BME280;15053;48.618;10.024;2023-09-07T10:18:06;94660.22;;;25.21;55.81
27643;BME280;15053;48.618;10.024;2023-09-07T10:20:56;94666.03;;;25.34;55.53
27643;BME280;15053;48.618;10.024;2023-09-07T10:23:43;94661.53;;;25.45;55.88
27643;BME280;15053;48.618;10.024;2023-09-07T10:26:18;94657.47;;;25.58;55.32
27643;BME280;15053;48.618;10.024;2023-09-07T10:28:58;94652.97;;;25.69;54.38
27643;BME280;15053;48.618;10.024;2023-09-07T10:31:25;94660.25;;;25.79;54.29
27643;BME280;15053;48.618;10.024;2023-09-07T10:34:10;94663.00;;;25.90;54.73
27643;BME280;15053;48.618;10.024;2023-09-07T10:36:39;94656.16;;;26.00;54.59
27643;BME280;15053;48.618;10.024;2023-09-07T10:39:05;94659.31;;;26.16;53.49
27643;BME280;15053;48.618;10.024;2023-09-07T10:41:40;94657.09;;;26.28;52.72
27643;BME280;15053;48.618;10.024;2023-09-07T10:44:07;94659.06;;;26.42;52.83
27643;BME280;15053;48.618;10.024;2023-09-07T10:46:34;94652.19;;;26.48;52.38
27643;BME280;15053;48.618;10.024;2023-09-07T10:49:00;94661.78;;;26.56;51.75
27643;BME280;15053;48.618;10.024;2023-09-07T10:51:27;94662.91;;;26.62;52.00
27643;BME280;15053;48.618;10.024;2023-09-07T10:53:54;94663.69;;;26.66;51.74
27643;BME280;15053;48.618;10.024;2023-09-07T10:56:24;94659.19;;;26.81;51.47
27643;BME280;15053;48.618;10.024;2023-09-07T10:58:54;94653.84;;;26.99;51.55
27643;BME280;15053;48.618;10.024;2023-09-07T11:01:20;94658.44;;;27.12;51.16
27643;BME280;15053;48.618;10.024;2023-09-07T11:03:47;94659.97;;;27.20;50.80
27643;BME280;15053;48.618;10.024;2023-09-07T11:06:16;94650.81;;;27.35;50.45
27643;BME280;15053;48.618;10.024;2023-09-07T11:08:49;94655.81;;;27.44;49.24
27643;BME280;15053;48.618;10.024;2023-09-07T11:11:16;94655.81;;;27.40;49.28
27643;BME280;15053;48.618;10.024;2023-09-07T11:13:43;94650.03;;;27.52;49.52
27643;BME280;15053;48.618;10.024;2023-09-07T11:16:10;94646.97;;;27.61;49.30
27643;BME280;15053;48.618;10.024;2023-09-07T11:18:36;94642.34;;;27.72;48.94
27643;BME280;15053;48.618;10.024;2023-09-07T11:21:03;94645.00;;;27.83;48.20
27643;BME280;15053;48.618;10.024;2023-09-07T11:23:31;94645.78;;;27.87;47.75
27643;BME280;15053;48.618;10.024;2023-09-07T11:26:05;94643.84;;;27.91;47.77
27643;BME280;15053;48.618;10.024;2023-09-07T11:28:32;94642.28;;;28.07;48.04
27643;BME280;15053;48.618;10.024;2023-09-07T11:30:59;94641.47;;;28.21;47.40
27643;BME280;15053;48.618;10.024;2023-09-07T11:33:26;94639.13;;;28.37;47.54
27643;BME280;15053;48.618;10.024;2023-09-07T11:35:53;94641.69;;;28.55;47.02
27643;BME280;15053;48.618;10.024;2023-09-07T11:38:22;94641.69;;;28.62;46.63
27643;BME280;15053;48.618;10.024;2023-09-07T11:40:48;94637.06;;;28.70;47.15
27643;BME280;15053;48.618;10.024;2023-09-07T11:43:17;94641.94;;;28.85;46.47
27643;BME280;15053;48.618;10.024;2023-09-07T11:45:46;94643.84;;;28.88;45.97
27643;BME280;15053;48.618;10.024;2023-09-07T11:48:13;94641.91;;;28.92;45.06
27643;BME280;15053;48.618;10.024;2023-09-07T11:50:39;94638.41;;;28.95;44.48
27643;BME280;15053;48.618;10.024;2023-09-07T11:53:07;94641.81;;;29.03;44.42
27643;BME280;15053;48.618;10.024;2023-09-07T11:55:34;94641.41;;;29.08;45.55
27643;BME280;15053;48.618;10.024;2023-09-07T11:58:02;94638.63;;;29.22;45.67
27643;BME280;15053;48.618;10.024;2023-09-07T12:00:29;94647.28;;;29.44;44.64
27643;BME280;15053;48.618;10.024;2023-09-07T12:02:58;94645.31;;;29.48;44.91
27643;BME280;15053;48.618;10.024;2023-09-07T12:05:25;94637.88;;;29.62;44.55
27643;BME280;15053;48.618;10.024;2023-09-07T12:07:52;94636.22;;;29.75;43.53
27643;BME280;15053;48.618;10.024;2023-09-07T12:10:19;94629.59;;;29.87;43.08
27643;BME280;15053;48.618;10.024;2023-09-07T12:12:46;94634.28;;;29.83;43.11
27643;BME280;15053;48.618;10.024;2023-09-07T12:15:13;94637.34;;;29.81;43.35
27643;BME280;15053;48.618;10.024;2023-09-07T12:17:40;94633.44;;;29.86;42.99
27643;BME280;15053;48.618;10.024;2023-09-07T12:20:07;94629.22;;;29.89;42.46
27643;BME280;15053;48.618;10.024;2023-09-07T12:22:37;94629.53;;;29.94;42.31
27643;BME280;15053;48.618;10.024;2023-09-07T12:25:05;94632.50;;;30.03;42.17
27643;BME280;15053;48.618;10.024;2023-09-07T12:27:42;94638.22;;;30.05;41.45
27643;BME280;15053;48.618;10.024;2023-09-07T12:30:16;94631.50;;;30.24;41.13
27643;BME280;15053;48.618;10.024;2023-09-07T12:32:45;94636.31;;;30.36;40.72
27643;BME280;15053;48.618;10.024;2023-09-07T12:35:11;94626.34;;;30.40;41.34
27643;BME280;15053;48.618;10.024;2023-09-07T12:37:38;94624.44;;;30.37;40.81
27643;BME280;15053;48.618;10.024;2023-09-07T12:40:05;94623.28;;;30.34;40.44
27643;BME280;15053;48.618;10.024;2023-09-07T12:42:44;94624.44;;;30.33;39.14
27643;BME280;15053;48.618;10.024;2023-09-07T12:45:12;94619.19;;;30.26;38.72
27643;BME280;15053;48.618;10.024;2023-09-07T12:47:40;94623.34;;;30.31;39.38
27643;BME280;15053;48.618;10.024;2023-09-07T12:50:07;94613.66;;;30.41;39.25
27643;BME280;15053;48.618;10.024;2023-09-07T12:52:34;94613.66;;;30.41;39.35
27643;BME280;15053;48.618;10.024;2023-09-07T12:55:05;94617.91;;;30.34;38.81
27643;BME280;15053;48.618;10.024;2023-09-07T12:57:32;94626.38;;;30.33;39.90